Wetterdaten: Woche 21.04.14 - 27.04.14 (KW17)
Datum Zeit Temp. Aussen +5cm Feuchte Auss Luftdruck Regen Sonnenschein Regendauer UV Solar Windben
21.04.2014 00:00 12,0 C 9,4 C 74 % 1006,1 hPa 0,0 l/m 0,00 h 0,00 h 0,0 UV-I 0 W/m 0,0 km/h (0 Bft)
21.04.2014 01:00 11,7 C 8,8 C 75 % 1006,0 hPa 0,0 l/m 0,00 h 0,00 h 0,0 UV-I 0 W/m 0,0 km/h (0 Bft)
21.04.2014 02:00 10,2 C 7,8 C 81 % 1005,8 hPa 0,0 l/m 0,00 h 0,00 h 0,0 UV-I 0 W/m 0,0 km/h (0 Bft)
21.04.2014 03:00 8,7 C 6,8 C 86 % 1005,4 hPa 0,0 l/m 0,00 h 0,00 h 0,0 UV-I 0 W/m 0,0 km/h (0 Bft)
21.04.2014 04:00 8,1 C 6,1 C 88 % 1005,1 hPa 0,0 l/m 0,00 h 0,00 h 0,0 UV-I 0 W/m 0,0 km/h (0 Bft)
21.04.2014 05:00 7,5 C 5,6 C 89 % 1004,6 hPa 0,0 l/m 0,00 h 0,00 h 0,0 UV-I 0 W/m 0,0 km/h (0 Bft)
21.04.2014 06:00 6,9 C 5,6 C 92 % 1004,6 hPa 0,0 l/m 0,10 h 0,00 h 0,0 UV-I 15 W/m 0,0 km/h (0 Bft)
21.04.2014 07:00 7,6 C 6,3 C 92 % 1004,8 hPa 0,0 l/m 0,00 h 0,00 h 0,0 UV-I 36 W/m 0,0 km/h (0 Bft)
21.04.2014 08:00 10,0 C 9,4 C 87 % 1004,7 hPa 0,0 l/m 0,00 h 0,00 h 0,0 UV-I 136 W/m 0,0 km/h (0 Bft)
21.04.2014 09:00 12,5 C 12,3 C 79 % 1004,5 hPa 0,0 l/m 0,10 h 0,00 h 0,0 UV-I 204 W/m 0,0 km/h (0 Bft)
21.04.2014 10:00 14,0 C 14,1 C 74 % 1004,2 hPa 0,0 l/m 0,00 h 0,00 h 0,0 UV-I 244 W/m 1,5 km/h (1 Bft)
21.04.2014 11:00 14,7 C 14,8 C 72 % 1004,0 hPa 0,0 l/m 0,00 h 0,00 h 0,5 UV-I 266 W/m 5,4 km/h (1 Bft)
21.04.2014 12:00 15,4 C 16,0 C 72 % 1003,8 hPa 0,0 l/m 0,40 h 0,00 h 1,0 UV-I 430 W/m 11,4 km/h (2 Bft)
21.04.2014 13:00 15,1 C 15,0 C 73 % 1003,8 hPa 0,0 l/m 0,00 h 0,00 h 0,5 UV-I 226 W/m 12,6 km/h (3 Bft)
21.04.2014 14:00 14,8 C 15,0 C 76 % 1003,2 hPa 0,0 l/m 0,03 h 0,00 h 0,6 UV-I 279 W/m 14,9 km/h (3 Bft)
21.04.2014 15:00 15,6 C 16,1 C 72 % 1003,3 hPa 0,0 l/m 0,17 h 0,00 h 0,8 UV-I 328 W/m 17,0 km/h (3 Bft)
21.04.2014 16:00 15,1 C 14,9 C 72 % 1003,3 hPa 0,0 l/m 0,00 h 0,10 h 0,0 UV-I 162 W/m 8,2 km/h (2 Bft)
21.04.2014 17:00 14,8 C 14,0 C 74 % 1003,1 hPa 0,0 l/m 0,00 h 0,07 h 0,0 UV-I 104 W/m 0,6 km/h (0 Bft)
21.04.2014 18:00 14,9 C 14,0 C 75 % 1002,9 hPa 0,0 l/m 0,00 h 0,27 h 0,0 UV-I 88 W/m 0,3 km/h (0 Bft)
21.04.2014 19:00 14,3 C 12,1 C 78 % 1002,8 hPa 0,0 l/m 0,00 h 0,20 h 0,0 UV-I 19 W/m 0,2 km/h (0 Bft)
21.04.2014 20:00 13,7 C 10,7 C 81 % 1003,5 hPa 0,0 l/m 0,00 h 0,00 h 0,0 UV-I 6 W/m 0,2 km/h (0 Bft)
21.04.2014 21:00 13,1 C 10,8 C 81 % 1004,2 hPa 0,0 l/m 0,00 h 0,00 h 0,0 UV-I 0 W/m 0,1 km/h (0 Bft)
21.04.2014 22:00 12,6 C 10,5 C 80 % 1004,4 hPa 0,0 l/m 0,00 h 0,00 h 0,0 UV-I 0 W/m 0,2 km/h (0 Bft)
21.04.2014 23:00 12,0 C 10,2 C 83 % 1004,5 hPa 0,0 l/m 0,00 h 0,00 h 0,0 UV-I 0 W/m 1,5 km/h (1 Bft)
22.04.2014 00:00 10,7 C 9,1 C 88 % 1004,6 hPa 0,0 l/m 0,00 h 0,00 h 0,0 UV-I 0 W/m 0,8 km/h (0 Bft)
22.04.2014 01:00 10,0 C 8,6 C 90 % 1005,1 hPa 0,0 l/m 0,00 h 0,00 h 0,0 UV-I 0 W/m 0,8 km/h (0 Bft)
22.04.2014 02:00 9,1 C 7,3 C 92 % 1005,5 hPa 0,0 l/m 0,00 h 0,00 h 0,0 UV-I 0 W/m 0,0 km/h (0 Bft)
22.04.2014 03:00 8,5 C 6,7 C 95 % 1005,7 hPa 0,0 l/m 0,00 h 0,00 h 0,0 UV-I 0 W/m 0,0 km/h (0 Bft)
22.04.2014 04:00 8,6 C 6,9 C 96 % 1006,1 hPa 0,0 l/m 0,00 h 0,00 h 0,0 UV-I 0 W/m 0,0 km/h (0 Bft)
22.04.2014 05:00 8,8 C 7,8 C 96 % 1006,5 hPa 0,0 l/m 0,00 h 0,00 h 0,0 UV-I 0 W/m 1,9 km/h (1 Bft)
22.04.2014 06:00 9,0 C 7,8 C 97 % 1007,0 hPa 0,0 l/m 0,00 h 0,00 h 0,0 UV-I 12 W/m 0,0 km/h (0 Bft)
22.04.2014 07:00 9,2 C 7,9 C 97 % 1008,0 hPa 0,0 l/m 0,00 h 0,00 h 0,0 UV-I 48 W/m 0,0 km/h (0 Bft)
22.04.2014 08:00 11,2 C 10,1 C 94 % 1008,6 hPa 0,0 l/m 0,67 h 0,00 h 0,0 UV-I 211 W/m 4,0 km/h (1 Bft)
22.04.2014 09:00 12,9 C 12,3 C 82 % 1009,3 hPa 0,0 l/m 0,77 h 0,00 h 0,0 UV-I 306 W/m 4,7 km/h (1 Bft)
22.04.2014 10:00 14,0 C 14,1 C 76 % 1010,1 hPa 0,0 l/m 0,33 h 0,00 h 0,6 UV-I 300 W/m 4,0 km/h (1 Bft)
22.04.2014 11:00 15,5 C 16,3 C 70 % 1010,7 hPa 0,0 l/m 0,80 h 0,00 h 1,5 UV-I 490 W/m 5,5 km/h (1 Bft)
22.04.2014 12:00 17,0 C 18,3 C 65 % 1011,1 hPa 0,0 l/m 0,73 h 0,00 h 2,1 UV-I 580 W/m 5,0 km/h (1 Bft)
22.04.2014 13:00 17,2 C 18,4 C 61 % 1011,2 hPa 0,0 l/m 0,47 h 0,00 h 1,7 UV-I 470 W/m 9,8 km/h (2 Bft)
22.04.2014 14:00 18,3 C 19,7 C 58 % 1011,6 hPa 0,0 l/m 0,97 h 0,00 h 2,6 UV-I 682 W/m 9,0 km/h (2 Bft)
22.04.2014 15:00 18,8 C 19,5 C 55 % 1011,9 hPa 0,0 l/m 0,77 h 0,00 h 2,1 UV-I 569 W/m 8,7 km/h (2 Bft)
22.04.2014 16:00 18,9 C 19,0 C 55 % 1012,0 hPa 0,0 l/m 0,97 h 0,00 h 1,6 UV-I 557 W/m 7,1 km/h (2 Bft)
22.04.2014 17:00 18,3 C 13,7 C 57 % 1012,1 hPa 0,0 l/m 0,47 h 0,00 h 0,6 UV-I 265 W/m 3,1 km/h (1 Bft)
22.04.2014 18:00 18,5 C 16,9 C 56 % 1012,4 hPa 0,0 l/m 0,17 h 0,00 h 0,0 UV-I 164 W/m 3,8 km/h (1 Bft)
22.04.2014 19:00 17,8 C 15,8 C 57 % 1012,9 hPa 0,0 l/m 0,00 h 0,00 h 0,0 UV-I 51 W/m 2,8 km/h (1 Bft)
22.04.2014 20:00 15,0 C 13,0 C 71 % 1013,8 hPa 0,0 l/m 0,00 h 0,00 h 0,0 UV-I 10 W/m 3,4 km/h (1 Bft)
22.04.2014 21:00 13,5 C 12,1 C 80 % 1014,4 hPa 0,0 l/m 0,00 h 0,00 h 0,0 UV-I 0 W/m 0,1 km/h (0 Bft)
22.04.2014 22:00 13,2 C 11,7 C 82 % 1014,7 hPa 0,0 l/m 0,00 h 0,00 h 0,0 UV-I 0 W/m 0,0 km/h (0 Bft)
22.04.2014 23:00 12,8 C 11,1 C 84 % 1015,2 hPa 0,0 l/m 0,00 h 0,00 h 0,0 UV-I 0 W/m 0,0 km/h (0 Bft)
23.04.2014 00:00 12,3 C 10,7 C 86 % 1015,7 hPa 0,0 l/m 0,00 h 0,00 h 0,0 UV-I 0 W/m 0,9 km/h (0 Bft)
23.04.2014 01:00 11,0 C 9,0 C 90 % 1016,2 hPa 0,0 l/m 0,00 h 0,00 h 0,0 UV-I 0 W/m 0,0 km/h (0 Bft)
23.04.2014 02:00 9,9 C 8,0 C 92 % 1016,4 hPa 0,0 l/m 0,00 h 0,00 h 0,0 UV-I 0 W/m 0,0 km/h (0 Bft)
23.04.2014 03:00 8,9 C 7,2 C 94 % 1016,6 hPa 0,0 l/m 0,00 h 0,00 h 0,0 UV-I 0 W/m 0,0 km/h (0 Bft)
23.04.2014 04:00 8,2 C 6,6 C 95 % 1017,0 hPa 0,0 l/m 0,00 h 0,00 h 0,0 UV-I 0 W/m 0,0 km/h (0 Bft)
23.04.2014 05:00 7,9 C 6,2 C 96 % 1017,1 hPa 0,0 l/m 0,00 h 0,00 h 0,0 UV-I 0 W/m 0,0 km/h (0 Bft)
23.04.2014 06:00 7,9 C 6,7 C 97 % 1017,7 hPa 0,0 l/m 0,00 h 0,00 h 0,0 UV-I 15 W/m 0,0 km/h (0 Bft)
23.04.2014 07:00 9,3 C 8,7 C 97 % 1018,0 hPa 0,0 l/m 0,00 h 0,00 h 0,0 UV-I 54 W/m 0,1 km/h (0 Bft)
23.04.2014 08:00 10,8 C 10,3 C 95 % 1018,3 hPa 0,0 l/m 0,00 h 0,00 h 0,0 UV-I 131 W/m 2,2 km/h (1 Bft)
23.04.2014 09:00 13,2 C 12,9 C 87 % 1018,6 hPa 0,0 l/m 0,50 h 0,00 h 0,0 UV-I 280 W/m 0,3 km/h (0 Bft)
23.04.2014 10:00 15,6 C 15,5 C 78 % 1018,9 hPa 0,0 l/m 0,93 h 0,00 h 1,2 UV-I 518 W/m 2,1 km/h (1 Bft)
23.04.2014 11:00 17,8 C 17,3 C 71 % 1019,0 hPa 0,0 l/m 0,97 h 0,00 h 2,1 UV-I 640 W/m 3,4 km/h (1 Bft)
23.04.2014 12:00 19,3 C 20,1 C 64 % 1018,8 hPa 0,0 l/m 0,97 h 0,00 h 2,6 UV-I 717 W/m 4,3 km/h (1 Bft)
23.04.2014 13:00 19,9 C 19,9 C 63 % 1018,6 hPa 0,0 l/m 0,33 h 0,00 h 1,5 UV-I 405 W/m 2,5 km/h (1 Bft)
23.04.2014 14:00 19,5 C 18,7 C 60 % 1018,4 hPa 0,0 l/m 0,13 h 0,00 h 1,6 UV-I 276 W/m 1,4 km/h (1 Bft)
23.04.2014 15:00 20,9 C 20,3 C 55 % 1018,1 hPa 0,0 l/m 0,57 h 0,00 h 1,8 UV-I 537 W/m 4,0 km/h (1 Bft)
23.04.2014 16:00 22,3 C 22,2 C 50 % 1017,7 hPa 0,0 l/m 0,90 h 0,00 h 1,8 UV-I 607 W/m 6,0 km/h (2 Bft)
23.04.2014 17:00 21,6 C 19,3 C 51 % 1017,5 hPa 0,0 l/m 0,67 h 0,00 h 1,1 UV-I 359 W/m 3,6 km/h (1 Bft)
23.04.2014 18:00 20,5 C 17,5 C 54 % 1017,4 hPa 0,0 l/m 0,13 h 0,00 h 0,5 UV-I 114 W/m 2,7 km/h (1 Bft)
23.04.2014 19:00 20,1 C 17,8 C 54 % 1017,5 hPa 0,0 l/m 0,00 h 0,00 h 0,0 UV-I 54 W/m 1,2 km/h (1 Bft)
23.04.2014 20:00 18,4 C 15,2 C 62 % 1018,0 hPa 0,0 l/m 0,00 h 0,00 h 0,0 UV-I 17 W/m 0,0 km/h (0 Bft)
23.04.2014 21:00 17,2 C 14,5 C 69 % 1018,5 hPa 0,0 l/m 0,00 h 0,00 h 0,0 UV-I 0 W/m 0,4 km/h (0 Bft)
23.04.2014 22:00 16,4 C 13,9 C 72 % 1018,9 hPa 0,0 l/m 0,00 h 0,07 h 0,0 UV-I 0 W/m 1,2 km/h (1 Bft)
23.04.2014 23:00 15,8 C 13,4 C 70 % 1018,8 hPa 0,0 l/m 0,00 h 0,00 h 0,0 UV-I 0 W/m 0,0 km/h (0 Bft)
24.04.2014 00:00 13,9 C 11,3 C 77 % 1018,9 hPa 0,0 l/m 0,00 h 0,00 h 0,0 UV-I 0 W/m 0,0 km/h (0 Bft)
24.04.2014 01:00 12,8 C 10,3 C 83 % 1019,0 hPa 0,0 l/m 0,00 h 0,00 h 0,0 UV-I 0 W/m 0,4 km/h (0 Bft)
24.04.2014 02:00 12,2 C 10,3 C 87 % 1018,7 hPa 0,0 l/m 0,00 h 0,00 h 0,0 UV-I 0 W/m 0,3 km/h (0 Bft)
24.04.2014 03:00 11,8 C 10,0 C 89 % 1018,6 hPa 0,0 l/m 0,00 h 0,00 h 0,0 UV-I 0 W/m 0,4 km/h (0 Bft)
24.04.2014 04:00 11,3 C 9,6 C 90 % 1018,5 hPa 0,0 l/m 0,00 h 0,00 h 0,0 UV-I 0 W/m 0,4 km/h (0 Bft)
24.04.2014 05:00 10,2 C 8,2 C 93 % 1018,4 hPa 0,0 l/m 0,00 h 0,00 h 0,0 UV-I 0 W/m 0,0 km/h (0 Bft)
24.04.2014 06:00 9,8 C 8,2 C 94 % 1018,4 hPa 0,0 l/m 0,07 h 0,00 h 0,0 UV-I 15 W/m 0,0 km/h (0 Bft)
24.04.2014 07:00 10,8 C 9,4 C 93 % 1018,7 hPa 0,0 l/m 0,00 h 0,00 h 0,0 UV-I 50 W/m 0,0 km/h (0 Bft)
24.04.2014 08:00 12,5 C 11,7 C 89 % 1018,9 hPa 0,0 l/m 0,40 h 0,00 h 0,0 UV-I 178 W/m 3,2 km/h (1 Bft)
24.04.2014 09:00 15,4 C 15,1 C 80 % 1018,9 hPa 0,0 l/m 0,97 h 0,00 h 0,7 UV-I 344 W/m 3,9 km/h (1 Bft)
24.04.2014 10:00 18,2 C 18,0 C 71 % 1018,9 hPa 0,0 l/m 0,90 h 0,00 h 1,5 UV-I 532 W/m 1,2 km/h (1 Bft)
24.04.2014 11:00 19,8 C 19,8 C 68 % 1018,7 hPa 0,0 l/m 0,57 h 0,00 h 1,7 UV-I 429 W/m 6,7 km/h (2 Bft)
24.04.2014 12:00 19,6 C 19,9 C 70 % 1018,2 hPa 0,0 l/m 0,23 h 0,00 h 1,4 UV-I 342 W/m 6,5 km/h (2 Bft)
24.04.2014 13:00 19,7 C 20,2 C 67 % 1017,7 hPa 0,0 l/m 0,13 h 0,00 h 1,3 UV-I 325 W/m 1,9 km/h (1 Bft)
24.04.2014 14:00 20,4 C 21,2 C 62 % 1017,2 hPa 0,0 l/m 0,20 h 0,00 h 1,7 UV-I 384 W/m 4,6 km/h (1 Bft)
24.04.2014 15:00 21,5 C 21,8 C 55 % 1016,6 hPa 0,0 l/m 0,73 h 0,00 h 1,9 UV-I 448 W/m 5,7 km/h (1 Bft)
24.04.2014 16:00 22,6 C 21,8 C 50 % 1015,6 hPa 0,0 l/m 0,80 h 0,00 h 1,6 UV-I 453 W/m 8,3 km/h (2 Bft)
24.04.2014 17:00 22,1 C 21,2 C 53 % 1015,1 hPa 0,0 l/m 0,30 h 0,00 h 0,7 UV-I 246 W/m 10,8 km/h (2 Bft)
24.04.2014 18:00 20,7 C 19,3 C 56 % 1014,9 hPa 0,0 l/m 0,00 h 0,00 h 0,0 UV-I 104 W/m 8,8 km/h (2 Bft)
24.04.2014 19:00 19,5 C 17,7 C 57 % 1014,9 hPa 0,0 l/m 0,00 h 0,00 h 0,0 UV-I 33 W/m 2,9 km/h (1 Bft)
24.04.2014 20:00 18,3 C 15,9 C 62 % 1014,6 hPa 0,0 l/m 0,00 h 0,00 h 0,0 UV-I 14 W/m 0,7 km/h (0 Bft)
24.04.2014 21:00 17,3 C 15,0 C 68 % 1015,0 hPa 0,0 l/m 0,00 h 0,20 h 0,0 UV-I 0 W/m 2,4 km/h (1 Bft)
24.04.2014 22:00 15,6 C 13,1 C 82 % 1015,1 hPa 1,6 l/m 0,00 h 0,70 h 0,0 UV-I 0 W/m 2,9 km/h (1 Bft)
24.04.2014 23:00 13,7 C 11,8 C 93 % 1014,6 hPa 0,4 l/m 0,00 h 0,57 h 0,0 UV-I 0 W/m 2,3 km/h (1 Bft)
25.04.2014 00:00 13,3 C 11,4 C 94 % 1014,1 hPa 0,0 l/m 0,00 h 0,00 h 0,0 UV-I 0 W/m 0,5 km/h (0 Bft)
25.04.2014 01:00 12,6 C 10,7 C 96 % 1013,7 hPa 0,0 l/m 0,00 h 0,00 h 0,0 UV-I 0 W/m 0,1 km/h (0 Bft)
25.04.2014 02:00 12,4 C 10,4 C 97 % 1013,0 hPa 0,0 l/m 0,00 h 0,00 h 0,0 UV-I 0 W/m 0,0 km/h (0 Bft)
25.04.2014 03:00 12,3 C 10,4 C 97 % 1012,6 hPa 0,0 l/m 0,00 h 0,00 h 0,0 UV-I 0 W/m 0,4 km/h (0 Bft)
25.04.2014 04:00 11,7 C 10,0 C 97 % 1012,4 hPa 0,0 l/m 0,00 h 0,00 h 0,0 UV-I 0 W/m 0,1 km/h (0 Bft)
25.04.2014 05:00 11,2 C 9,6 C 97 % 1011,9 hPa 0,0 l/m 0,00 h 0,00 h 0,0 UV-I 0 W/m 0,5 km/h (0 Bft)
25.04.2014 06:00 10,8 C 9,4 C 97 % 1011,6 hPa 0,0 l/m 0,00 h 0,00 h 0,0 UV-I 13 W/m 1,2 km/h (1 Bft)
25.04.2014 07:00 10,9 C 9,5 C 96 % 1011,7 hPa 0,0 l/m 0,00 h 0,03 h 0,0 UV-I 45 W/m 0,4 km/h (0 Bft)
25.04.2014 08:00 12,3 C 10,9 C 95 % 1011,6 hPa 0,0 l/m 0,70 h 0,00 h 0,0 UV-I 196 W/m 1,3 km/h (1 Bft)
25.04.2014 09:00 15,1 C 14,3 C 87 % 1011,7 hPa 0,0 l/m 0,97 h 0,00 h 0,7 UV-I 375 W/m 2,0 km/h (1 Bft)
25.04.2014 10:00 17,4 C 16,8 C 80 % 1011,6 hPa 0,0 l/m 0,97 h 0,00 h 1,3 UV-I 508 W/m 6,5 km/h (2 Bft)
25.04.2014 11:00 19,4 C 18,6 C 74 % 1011,3 hPa 0,0 l/m 0,87 h 0,00 h 2,1 UV-I 583 W/m 11,9 km/h (2 Bft)
25.04.2014 12:00 21,5 C 21,5 C 69 % 1010,7 hPa 0,0 l/m 0,97 h 0,00 h 2,6 UV-I 673 W/m 10,1 km/h (2 Bft)
25.04.2014 13:00 23,5 C 22,9 C 61 % 1010,0 hPa 0,0 l/m 0,97 h 0,00 h 2,5 UV-I 732 W/m 10,8 km/h (2 Bft)
25.04.2014 14:00 24,8 C 23,7 C 52 % 1009,7 hPa 0,0 l/m 0,90 h 0,00 h 3,1 UV-I 697 W/m 16,4 km/h (3 Bft)
25.04.2014 15:00 25,1 C 23,9 C 48 % 1009,3 hPa 0,0 l/m 0,77 h 0,00 h 2,4 UV-I 573 W/m 13,8 km/h (3 Bft)
25.04.2014 16:00 25,7 C 24,5 C 45 % 1008,9 hPa 0,0 l/m 0,97 h 0,00 h 2,0 UV-I 546 W/m 14,7 km/h (3 Bft)
25.04.2014 17:00 25,2 C 23,3 C 44 % 1008,6 hPa 0,0 l/m 0,73 h 0,00 h 1,3 UV-I 366 W/m 10,1 km/h (2 Bft)
25.04.2014 18:00 23,7 C 21,2 C 48 % 1008,5 hPa 0,0 l/m 0,00 h 0,00 h 0,6 UV-I 97 W/m 2,5 km/h (1 Bft)
25.04.2014 19:00 21,6 C 18,6 C 55 % 1008,9 hPa 0,0 l/m 0,00 h 0,00 h 0,0 UV-I 25 W/m 3,7 km/h (1 Bft)
25.04.2014 20:00 19,5 C 16,9 C 59 % 1009,3 hPa 0,0 l/m 0,00 h 0,00 h 0,0 UV-I 8 W/m 1,4 km/h (1 Bft)
25.04.2014 21:00 17,2 C 14,1 C 76 % 1009,9 hPa 1,2 l/m 0,00 h 0,60 h 0,0 UV-I 0 W/m 4,3 km/h (1 Bft)
25.04.2014 22:00 16,3 C 12,9 C 82 % 1010,2 hPa 0,0 l/m 0,00 h 0,07 h 0,0 UV-I 0 W/m 8,0 km/h (2 Bft)
25.04.2014 23:00 15,5 C 12,7 C 82 % 1011,1 hPa 0,0 l/m 0,00 h 0,00 h 0,0 UV-I 0 W/m 6,3 km/h (2 Bft)
26.04.2014 00:00 14,4 C 12,0 C 82 % 1011,9 hPa 0,0 l/m 0,00 h 0,00 h 0,0 UV-I 0 W/m 2,4 km/h (1 Bft)
26.04.2014 01:00 13,8 C 11,8 C 84 % 1012,6 hPa 0,0 l/m 0,00 h 0,00 h 0,0 UV-I 0 W/m 0,3 km/h (0 Bft)
26.04.2014 02:00 13,6 C 12,0 C 85 % 1012,5 hPa 0,0 l/m 0,00 h 0,00 h 0,0 UV-I 0 W/m 0,4 km/h (0 Bft)
26.04.2014 03:00 12,6 C 11,0 C 88 % 1012,2 hPa 0,0 l/m 0,00 h 0,00 h 0,0 UV-I 0 W/m 0,7 km/h (0 Bft)
26.04.2014 04:00 11,6 C 9,6 C 92 % 1012,3 hPa 0,0 l/m 0,00 h 0,00 h 0,0 UV-I 0 W/m 0,2 km/h (0 Bft)
26.04.2014 05:00 11,1 C 9,4 C 93 % 1012,0 hPa 0,0 l/m 0,00 h 0,00 h 0,0 UV-I 0 W/m 0,3 km/h (0 Bft)
26.04.2014 06:00 10,6 C 9,0 C 94 % 1012,2 hPa 0,0 l/m 0,00 h 0,00 h 0,0 UV-I 12 W/m 0,0 km/h (0 Bft)
26.04.2014 07:00 10,9 C 9,6 C 94 % 1012,4 hPa 0,0 l/m 0,00 h 0,00 h 0,0 UV-I 61 W/m 0,5 km/h (0 Bft)
26.04.2014 08:00 12,1 C 11,1 C 90 % 1012,4 hPa 0,0 l/m 0,60 h 0,00 h 0,0 UV-I 200 W/m 3,2 km/h (1 Bft)
26.04.2014 09:00 13,3 C 13,3 C 85 % 1012,4 hPa 0,0 l/m 0,80 h 0,00 h 0,6 UV-I 338 W/m 2,7 km/h (1 Bft)
26.04.2014 10:00 15,1 C 15,3 C 77 % 1012,3 hPa 0,0 l/m 0,60 h 0,00 h 1,1 UV-I 432 W/m 2,0 km/h (1 Bft)
26.04.2014 11:00 15,8 C 16,6 C 74 % 1011,9 hPa 0,0 l/m 0,67 h 0,00 h 1,4 UV-I 411 W/m 4,0 km/h (1 Bft)
26.04.2014 12:00 16,7 C 17,9 C 71 % 1011,4 hPa 0,0 l/m 0,63 h 0,00 h 1,9 UV-I 463 W/m 6,3 km/h (2 Bft)
26.04.2014 13:00 18,1 C 18,5 C 66 % 1010,8 hPa 0,0 l/m 0,80 h 0,00 h 2,1 UV-I 699 W/m 9,7 km/h (2 Bft)
26.04.2014 14:00 19,2 C 19,8 C 62 % 1010,1 hPa 0,0 l/m 0,62 h 0,00 h 2,2 UV-I 579 W/m 10,6 km/h (2 Bft)
26.04.2014 15:00 18,8 C 19,0 C 61 % 1009,4 hPa 0,0 l/m 0,03 h 0,00 h 1,2 UV-I 310 W/m 5,3 km/h (1 Bft)
26.04.2014 16:00 18,3 C 17,8 C 62 % 1008,9 hPa 0,0 l/m 0,00 h 0,00 h 0,6 UV-I 181 W/m 1,2 km/h (1 Bft)
26.04.2014 17:00 17,9 C 16,7 C 63 % 1008,6 hPa 0,0 l/m 0,00 h 0,00 h 0,0 UV-I 64 W/m 2,0 km/h (1 Bft)
26.04.2014 18:00 17,2 C 15,1 C 66 % 1008,2 hPa 0,0 l/m 0,00 h 0,00 h 0,0 UV-I 27 W/m 0,0 km/h (0 Bft)
26.04.2014 19:00 16,5 C 14,3 C 73 % 1007,9 hPa 0,0 l/m 0,00 h 0,27 h 0,0 UV-I 17 W/m 0,0 km/h (0 Bft)
26.04.2014 20:00 15,5 C 13,3 C 77 % 1007,9 hPa 0,0 l/m 0,00 h 0,27 h 0,0 UV-I 6 W/m 0,0 km/h (0 Bft)
26.04.2014 21:00 14,1 C 12,0 C 87 % 1008,3 hPa 0,8 l/m 0,00 h 0,90 h 0,0 UV-I 0 W/m 0,0 km/h (0 Bft)
26.04.2014 22:00 13,3 C 11,7 C 93 % 1008,1 hPa 0,0 l/m 0,00 h 0,23 h 0,0 UV-I 0 W/m 0,0 km/h (0 Bft)
26.04.2014 23:00 13,2 C 11,7 C 94 % 1007,6 hPa 0,6 l/m 0,00 h 0,80 h 0,0 UV-I 0 W/m 0,0 km/h (0 Bft)
27.04.2014 00:00 12,8 C 11,7 C 96 % 1007,3 hPa 0,4 l/m 0,00 h 0,67 h 0,0 UV-I 0 W/m 0,1 km/h (0 Bft)
27.04.2014 01:00 12,6 C 11,7 C 97 % 1007,0 hPa 0,0 l/m 0,00 h 0,37 h 0,0 UV-I 0 W/m 1,1 km/h (0 Bft)
27.04.2014 02:00 12,2 C 11,1 C 97 % 1006,9 hPa 0,0 l/m 0,00 h 0,57 h 0,0 UV-I 0 W/m 0,3 km/h (0 Bft)
27.04.2014 03:00 11,7 C 10,6 C 97 % 1006,8 hPa 0,0 l/m 0,00 h 0,27 h 0,0 UV-I 0 W/m 2,6 km/h (1 Bft)
27.04.2014 04:00 11,1 C 9,8 C 95 % 1006,8 hPa 0,4 l/m 0,00 h 0,80 h 0,0 UV-I 0 W/m 0,2 km/h (0 Bft)
27.04.2014 05:00 10,7 C 9,4 C 96 % 1006,5 hPa 0,0 l/m 0,00 h 0,30 h 0,0 UV-I 0 W/m 0,0 km/h (0 Bft)
27.04.2014 06:00 10,5 C 9,4 C 97 % 1006,5 hPa 1,6 l/m 0,00 h 0,97 h 0,0 UV-I 6 W/m 0,0 km/h (0 Bft)
27.04.2014 07:00 10,3 C 9,4 C 97 % 1006,9 hPa 2,2 l/m 0,00 h 0,97 h 0,0 UV-I 15 W/m 0,0 km/h (0 Bft)
27.04.2014 08:00 10,5 C 9,8 C 98 % 1006,8 hPa 1,2 l/m 0,00 h 0,97 h 0,0 UV-I 36 W/m 0,0 km/h (0 Bft)
27.04.2014 09:00 10,6 C 10,1 C 98 % 1006,8 hPa 1,2 l/m 0,00 h 0,97 h 0,0 UV-I 85 W/m 0,1 km/h (0 Bft)
27.04.2014 10:00 11,1 C 10,8 C 98 % 1006,9 hPa 0,2 l/m 0,00 h 0,97 h 0,0 UV-I 169 W/m 0,5 km/h (0 Bft)
27.04.2014 11:00 11,8 C 11,4 C 95 % 1007,0 hPa 0,2 l/m 0,00 h 0,63 h 0,6 UV-I 226 W/m 1,6 km/h (1 Bft)
27.04.2014 12:00 12,8 C 12,2 C 91 % 1006,9 hPa 0,0 l/m 0,00 h 0,30 h 0,9 UV-I 287 W/m 1,9 km/h (1 Bft)
27.04.2014 13:00 13,8 C 13,8 C 86 % 1007,0 hPa 0,0 l/m 0,33 h 0,00 h 1,4 UV-I 395 W/m 1,0 km/h (0 Bft)
27.04.2014 14:00 15,0 C 15,2 C 79 % 1006,9 hPa 0,0 l/m 0,43 h 0,00 h 2,3 UV-I 559 W/m 3,7 km/h (1 Bft)
27.04.2014 15:00 16,5 C 16,1 C 71 % 1006,6 hPa 0,0 l/m 0,87 h 0,00 h 2,1 UV-I 556 W/m 5,9 km/h (2 Bft)
27.04.2014 16:00 16,3 C 16,3 C 71 % 1006,4 hPa 0,0 l/m 0,20 h 0,00 h 0,9 UV-I 284 W/m 6,9 km/h (2 Bft)
27.04.2014 17:00 15,7 C 15,2 C 74 % 1006,5 hPa 0,0 l/m 0,00 h 0,00 h 0,0 UV-I 148 W/m 7,2 km/h (2 Bft)
27.04.2014 18:00 15,2 C 14,2 C 76 % 1006,6 hPa 0,0 l/m 0,00 h 0,00 h 0,0 UV-I 102 W/m 3,7 km/h (1 Bft)
27.04.2014 19:00 15,1 C 13,9 C 76 % 1006,9 hPa 0,0 l/m 0,00 h 0,00 h 0,0 UV-I 76 W/m 3,2 km/h (1 Bft)
27.04.2014 20:00 14,2 C 12,5 C 81 % 1007,3 hPa 0,0 l/m 0,00 h 0,00 h 0,0 UV-I 15 W/m 0,1 km/h (0 Bft)
27.04.2014 21:00 13,0 C 10,7 C 85 % 1007,8 hPa 0,0 l/m 0,00 h 0,00 h 0,0 UV-I 0 W/m 0,0 km/h (0 Bft)
27.04.2014 22:00 11,3 C 9,2 C 91 % 1008,0 hPa 0,0 l/m 0,00 h 0,00 h 0,0 UV-I 0 W/m 0,0 km/h (0 Bft)
27.04.2014 23:00 10,3 C 8,3 C 93 % 1008,3 hPa 0,0 l/m 0,00 h 0,00 h 0,0 UV-I 0 W/m 0,0 km/h (0 Bft)
Min-Datum _ 21.04.14 21.04.14 25.04.14 21.04.14 - - - - - 21.04.14
_ Min-Zeit 06:10 05:56 17:18 18:54 - - - - - 00:00
Minimum _ 6,5 C 5,0 C 42 % 1002,7 hPa - - - - - 0,0 km/h (0 Bft)
Max-Datum _ 25.04.14 25.04.14 27.04.14 23.04.14 27.04.14 21.04.14 21.04.14 27.04.14 26.04.14 21.04.14
_ Max-Zeit 16:22 15:28 07:50 11:16 07:02 06:40 16:54 14:44 14:28 15:10
Maximum _ 26,0 C 25,0 C 98 % 1019,1 hPa 2,2 l/m 0,03 h 0,03 h 3,8 UV-I 1005 W/m 41,2 km/h
O (6 Bft)
Durchschnitt _ 14,6 C 13,4 C 79 % 1011,1 hPa #12,0 l/m #34:41 h #14:08 h 1,5 UV-I 267 W/m 2,8 km/h (1 Bft)
© 2014 W. Hausmann